Time;durP1;ratioP1;P1;durP2;ratioP2;P2;SDS_P1;SDS_P2;PMS_P1;PMS_P2;Temp;Humidity;BMP_temperature;BMP_pressure;BME280_temperature;BME280_humidity;BME280_pressure;Samples;Min_cycle;Max_cycle;Signal;HPM_P1;HPM_P2
2022/12/07 00:01:28;;;;;;;3.40;3.20;;;5.80;99.90;;;;;;4930431;28;20204;-62
2022/12/07 00:04:00;;;;;;;2.97;2.87;;;5.80;99.90;;;;;;4926074;28;20208;-62
2022/12/07 00:06:28;;;;;;;3.20;3.00;;;5.80;99.90;;;;;;4929494;28;20236;-63
2022/12/07 00:08:55;;;;;;;2.83;2.73;;;5.90;99.90;;;;;;4931853;28;20208;-64
2022/12/07 00:11:23;;;;;;;3.07;2.87;;;5.90;99.90;;;;;;4931632;28;20216;-64
2022/12/07 00:13:53;;;;;;;2.77;2.67;;;5.90;99.90;;;;;;4932146;28;20212;-62
2022/12/07 00:16:22;;;;;;;2.83;2.70;;;6.00;99.90;;;;;;4930546;28;20235;-62
2022/12/07 00:18:50;;;;;;;2.90;2.70;;;6.10;99.90;;;;;;4929972;29;20208;-62
2022/12/07 00:21:19;;;;;;;2.90;2.70;;;6.10;99.90;;;;;;4928911;28;20214;-63
2022/12/07 00:23:49;;;;;;;3.03;2.83;;;6.10;99.90;;;;;;4929742;29;20219;-62
2022/12/07 00:26:17;;;;;;;2.80;2.70;;;6.20;99.90;;;;;;4928711;28;20234;-62
2022/12/07 00:28:47;;;;;;;3.00;2.80;;;6.20;99.90;;;;;;4929162;28;20291;-63
2022/12/07 00:31:15;;;;;;;2.53;2.43;;;6.20;99.90;;;;;;4930664;28;20247;-62
2022/12/07 00:33:42;;;;;;;3.30;3.10;;;6.30;99.90;;;;;;4929975;28;20210;-61
2022/12/07 00:36:11;;;;;;;3.00;2.90;;;6.30;99.90;;;;;;4930481;28;20633;-62
2022/12/07 00:38:39;;;;;;;2.60;2.50;;;6.20;99.90;;;;;;4930048;29;20650;-63
2022/12/07 00:41:11;;;;;;;2.70;2.60;;;6.20;99.90;;;;;;4930221;29;20311;-63
2022/12/07 00:43:38;;;;;;;2.57;2.47;;;6.20;99.90;;;;;;4930554;29;20291;-62
2022/12/07 00:46:05;;;;;;;2.83;2.73;;;6.20;99.90;;;;;;4930602;28;20319;-63
2022/12/07 00:48:32;;;;;;;3.10;2.90;;;6.10;99.90;;;;;;4930424;29;20291;-62
2022/12/07 00:50:59;;;;;;;2.50;2.40;;;6.10;99.90;;;;;;4932279;28;20218;-62
2022/12/07 00:53:26;;;;;;;3.13;2.93;;;6.10;99.90;;;;;;4930751;28;20242;-63
2022/12/07 00:55:53;;;;;;;3.17;2.97;;;6.10;99.90;;;;;;4926132;28;20227;-64
2022/12/07 00:58:21;;;;;;;3.17;3.00;;;6.00;99.90;;;;;;4928985;28;20234;-62
2022/12/07 01:00:48;;;;;;;3.30;3.10;;;5.90;99.90;;;;;;4929934;28;20246;-64
2022/12/07 01:03:16;;;;;;;3.17;2.97;;;5.90;99.90;;;;;;4929590;28;20601;-64
2022/12/07 01:05:52;;;;;;;2.80;2.60;;;5.90;99.90;;;;;;4930966;29;20238;-63
2022/12/07 01:08:19;;;;;;;3.10;2.90;;;5.80;99.90;;;;;;4931739;29;20224;-62
2022/12/07 01:10:47;;;;;;;2.70;2.60;;;5.80;99.90;;;;;;4930683;28;20744;-62
2022/12/07 01:13:13;;;;;;;3.13;2.93;;;5.90;99.90;;;;;;4930771;28;20658;-64
2022/12/07 01:15:43;;;;;;;2.70;2.60;;;5.90;99.90;;;;;;4931696;28;20266;-64
2022/12/07 01:18:09;;;;;;;3.10;2.90;;;6.00;99.90;;;;;;4931111;29;20236;-63
2022/12/07 01:20:37;;;;;;;2.80;2.70;;;5.90;99.90;;;;;;4932780;28;20231;-63
2022/12/07 01:23:04;;;;;;;2.67;2.57;;;5.90;99.90;;;;;;4921350;28;20252;-61
2022/12/07 01:25:31;;;;;;;2.70;2.60;;;5.90;99.90;;;;;;4930840;28;20550;-61
2022/12/07 01:27:58;;;;;;;3.10;2.90;;;5.90;99.90;;;;;;4926911;28;20216;-63
2022/12/07 01:30:24;;;;;;;2.93;2.73;;;5.80;99.90;;;;;;4931013;28;20295;-61
2022/12/07 01:32:53;;;;;;;2.90;2.80;;;5.80;99.90;;;;;;4933316;29;20204;-62
2022/12/07 01:35:19;;;;;;;3.00;2.80;;;5.80;99.90;;;;;;4940307;28;20222;-62
2022/12/07 01:37:46;;;;;;;2.50;2.40;;;5.90;99.90;;;;;;4938735;28;20258;-62
2022/12/07 01:40:13;;;;;;;3.00;2.80;;;5.90;99.90;;;;;;4933545;28;20310;-62
2022/12/07 01:42:40;;;;;;;2.93;2.83;;;6.00;99.90;;;;;;4933451;29;20204;-63
2022/12/07 01:45:38;;;;;;;2.97;2.77;;;5.90;99.90;;;;;;4933409;28;20208;-62
2022/12/07 01:48:09;;;;;;;2.97;2.87;;;5.90;99.90;;;;;;4934146;28;20214;-62
2022/12/07 01:50:37;;;;;;;2.73;2.63;;;5.90;99.90;;;;;;4933460;29;20236;-62
2022/12/07 01:53:07;;;;;;;4.07;2.60;;;5.90;99.90;;;;;;4939446;28;20209;-62
2022/12/07 01:55:37;;;;;;;2.83;2.73;;;5.80;99.90;;;;;;4944016;29;20228;-63
2022/12/07 01:58:05;;;;;;;3.30;3.10;;;5.80;99.90;;;;;;4929388;29;20909;-62
2022/12/07 02:00:32;;;;;;;2.50;2.40;;;5.80;99.90;;;;;;4937645;28;20224;-63
2022/12/07 02:03:05;;;;;;;2.67;2.53;;;5.80;99.90;;;;;;4941079;28;20700;-62
2022/12/07 02:05:35;;;;;;;3.10;2.90;;;5.80;99.90;;;;;;4936129;28;20200;-60
2022/12/07 02:08:03;;;;;;;2.87;2.77;;;5.80;99.90;;;;;;4940151;28;20204;-62
2022/12/07 02:10:31;;;;;;;2.63;2.53;;;5.80;99.90;;;;;;4935930;28;20554;-62
2022/12/07 02:13:02;;;;;;;2.87;2.77;;;5.90;99.90;;;;;;4942459;28;20200;-62
2022/12/07 02:15:38;;;;;;;2.47;2.37;;;5.90;99.90;;;;;;4934146;28;20231;-63
2022/12/07 02:18:15;;;;;;;2.40;2.30;;;6.00;99.90;;;;;;4930827;28;20204;-62
2022/12/07 02:20:49;;;;;;;2.20;2.10;;;6.00;99.90;;;;;;4932184;28;20302;-63
2022/12/07 02:23:55;;;;;;;2.70;2.53;;;6.10;99.90;;;;;;4932055;28;20221;-62
2022/12/07 02:27:02;;;;;;;2.40;2.30;;;6.10;99.90;;;;;;4922984;29;20307;-63
2022/12/07 02:29:36;;;;;;;2.30;2.20;;;6.10;99.90;;;;;;4928124;28;20204;-62
2022/12/07 02:32:10;;;;;;;2.30;2.20;;;6.10;99.90;;;;;;4932480;28;20214;-62
2022/12/07 02:34:45;;;;;;;2.60;2.50;;;6.20;99.90;;;;;;4930088;29;20210;-63
2022/12/07 02:37:26;;;;;;;2.23;2.13;;;6.20;99.90;;;;;;4930983;28;20235;-63
2022/12/07 02:39:59;;;;;;;2.47;2.37;;;6.20;99.90;;;;;;4936209;29;20234;-61
2022/12/07 02:42:32;;;;;;;2.40;2.30;;;6.20;99.90;;;;;;4938832;28;20204;-63
2022/12/07 02:45:01;;;;;;;2.83;2.63;;;6.20;99.90;;;;;;4932381;28;20212;-63
2022/12/07 02:47:29;;;;;;;2.40;2.30;;;6.20;99.90;;;;;;4923887;28;20228;-62
2022/12/07 02:49:56;;;;;;;2.63;2.53;;;6.20;99.90;;;;;;4932176;28;20207;-62
2022/12/07 02:52:23;;;;;;;2.50;2.40;;;6.20;99.90;;;;;;4931391;28;20212;-62
2022/12/07 02:54:50;;;;;;;2.73;2.63;;;6.20;99.90;;;;;;4931781;28;20680;-62
2022/12/07 02:57:31;;;;;;;2.27;2.17;;;6.20;99.90;;;;;;4928581;28;20238;-62
2022/12/07 03:00:07;;;;;;;2.60;2.50;;;6.20;99.90;;;;;;4920424;29;20227;-62
2022/12/07 03:02:49;;;;;;;2.50;2.40;;;6.10;99.90;;;;;;4926823;28;20253;-62
2022/12/07 03:05:32;;;;;;;2.60;2.50;;;6.10;99.90;;;;;;4931704;28;20212;-61
2022/12/07 03:08:05;;;;;;;2.63;2.53;;;6.10;99.90;;;;;;4931536;29;20208;-63
2022/12/07 03:10:41;;;;;;;3.13;2.93;;;6.10;99.90;;;;;;4924316;29;20204;-61
2022/12/07 03:13:13;;;;;;;2.90;2.70;;;6.00;99.90;;;;;;4931828;29;20212;-63
2022/12/07 03:15:48;;;;;;;2.60;2.50;;;6.00;99.90;;;;;;4952752;28;20231;-62
2022/12/07 03:18:20;;;;;;;2.40;2.30;;;6.00;99.90;;;;;;4932085;28;20696;-62
2022/12/07 03:20:50;;;;;;;2.50;2.40;;;5.90;99.90;;;;;;4933333;28;20242;-63
2022/12/07 03:23:19;;;;;;;2.93;2.77;;;5.80;99.90;;;;;;4933134;28;20213;-63
2022/12/07 03:25:50;;;;;;;2.60;2.50;;;5.70;99.90;;;;;;4933471;28;20222;-64
2022/12/07 03:28:20;;;;;;;2.60;2.50;;;5.70;99.90;;;;;;4933168;28;20226;-63
2022/12/07 03:30:52;;;;;;;2.70;2.60;;;5.70;99.90;;;;;;4932729;28;20196;-63
2022/12/07 03:33:22;;;;;;;2.40;2.30;;;5.70;99.90;;;;;;4932811;29;20765;-64
2022/12/07 03:35:54;;;;;;;2.70;2.50;;;5.70;99.90;;;;;;4933306;29;20224;-63
2022/12/07 03:38:26;;;;;;;2.53;2.43;;;5.70;99.90;;;;;;4933332;28;20588;-63
2022/12/07 03:41:01;;;;;;;2.40;2.30;;;6.00;99.90;;;;;;4934572;28;20220;-63
2022/12/07 03:43:29;;;;;;;2.37;2.27;;;6.00;99.90;;;;;;4947812;28;20239;-63
2022/12/07 03:46:05;;;;;;;2.47;2.37;;;6.10;99.90;;;;;;4951947;28;20302;-64
2022/12/07 03:48:38;;;;;;;2.33;2.23;;;6.10;99.90;;;;;;4927676;28;20219;-63
2022/12/07 03:51:12;;;;;;;2.27;2.17;;;6.10;99.90;;;;;;4934365;28;20192;-63
2022/12/07 03:53:45;;;;;;;2.30;2.20;;;6.00;99.90;;;;;;4934894;29;20601;-63
2022/12/07 03:56:13;;;;;;;2.20;2.10;;;6.00;99.90;;;;;;4930986;28;20255;-63
2022/12/07 03:58:41;;;;;;;2.13;2.03;;;6.00;99.90;;;;;;4938275;28;20267;-64
2022/12/07 04:01:10;;;;;;;2.37;2.27;;;6.10;99.90;;;;;;4938128;28;20311;-64
2022/12/07 04:03:36;;;;;;;2.13;2.03;;;6.10;99.90;;;;;;4936950;28;20210;-64
2022/12/07 04:06:03;;;;;;;2.50;2.30;;;6.10;99.90;;;;;;4932560;28;20232;-62
2022/12/07 04:08:30;;;;;;;2.30;2.20;;;6.10;99.90;;;;;;4961002;28;20212;-64
2022/12/07 04:10:57;;;;;;;2.13;2.03;;;6.00;99.90;;;;;;4932333;28;20204;-64
2022/12/07 04:13:24;;;;;;;2.83;2.63;;;5.90;99.90;;;;;;4932183;28;20210;-63
2022/12/07 04:15:51;;;;;;;2.50;2.40;;;5.80;99.90;;;;;;4931840;28;20228;-65
2022/12/07 04:18:19;;;;;;;2.50;2.40;;;5.80;99.90;;;;;;4931333;28;20208;-64
2022/12/07 04:20:47;;;;;;;2.50;2.40;;;5.60;99.90;;;;;;4931854;28;20226;-64
2022/12/07 04:23:14;;;;;;;2.47;2.37;;;5.70;99.90;;;;;;4933019;29;20571;-64
2022/12/07 04:25:41;;;;;;;2.37;2.27;;;5.80;99.90;;;;;;4933436;28;20311;-63
2022/12/07 04:28:08;;;;;;;2.50;2.40;;;5.80;99.90;;;;;;4931760;28;20319;-65
2022/12/07 04:30:35;;;;;;;2.40;2.30;;;5.80;99.90;;;;;;4932341;28;20268;-64
2022/12/07 04:33:02;;;;;;;2.50;2.40;;;5.70;99.90;;;;;;4932062;28;20627;-62
2022/12/07 04:35:30;;;;;;;2.40;2.30;;;5.80;99.90;;;;;;4925159;28;20295;-63
2022/12/07 04:37:57;;;;;;;2.43;2.33;;;5.80;99.90;;;;;;4931985;28;20207;-62
2022/12/07 04:40:23;;;;;;;2.50;2.40;;;5.90;99.90;;;;;;4932274;28;20238;-63
2022/12/07 04:42:50;;;;;;;2.13;2.03;;;5.80;99.90;;;;;;4932045;28;20246;-63
2022/12/07 04:45:17;;;;;;;2.70;2.50;;;5.80;99.90;;;;;;4931700;28;20295;-63
2022/12/07 04:47:44;;;;;;;2.40;2.30;;;5.60;99.90;;;;;;4930067;28;20304;-63
2022/12/07 04:50:11;;;;;;;2.10;2.00;;;5.60;99.90;;;;;;4931261;28;20231;-63
2022/12/07 04:52:39;;;;;;;2.27;2.17;;;5.60;99.90;;;;;;4931543;28;20303;-64
2022/12/07 04:55:07;;;;;;;2.30;2.20;;;5.60;99.90;;;;;;4931262;28;20572;-63
2022/12/07 04:57:34;;;;;;;2.10;2.00;;;5.60;99.90;;;;;;4931302;28;20230;-65
2022/12/07 05:00:00;;;;;;;2.20;2.10;;;5.60;99.90;;;;;;4931447;28;20209;-65
2022/12/07 05:02:27;;;;;;;2.10;2.00;;;5.60;99.90;;;;;;4931152;28;20663;-62
2022/12/07 05:04:54;;;;;;;2.90;2.70;;;5.50;99.90;;;;;;4930279;28;20215;-62
2022/12/07 05:07:21;;;;;;;2.40;2.30;;;5.40;99.90;;;;;;4933190;28;20236;-63
2022/12/07 05:09:49;;;;;;;2.50;2.40;;;5.20;99.90;;;;;;4933932;28;20337;-62
2022/12/07 05:12:16;;;;;;;2.90;2.80;;;5.10;99.90;;;;;;4933959;28;20291;-61
2022/12/07 05:14:42;;;;;;;2.70;2.50;;;5.10;99.90;;;;;;4933488;28;20204;-62
2022/12/07 05:17:11;;;;;;;2.37;2.27;;;5.10;99.90;;;;;;4933876;28;20331;-62
2022/12/07 05:19:38;;;;;;;2.40;2.30;;;5.00;99.90;;;;;;4952961;28;20210;-61
2022/12/07 05:22:04;;;;;;;2.30;2.20;;;5.00;99.90;;;;;;4933250;28;20704;-61
2022/12/07 05:24:31;;;;;;;2.70;2.60;;;5.10;99.90;;;;;;4933364;28;20311;-62
2022/12/07 05:26:59;;;;;;;2.20;2.10;;;5.20;99.90;;;;;;4933577;28;20228;-61
2022/12/07 05:29:26;;;;;;;2.10;2.00;;;5.20;99.90;;;;;;4933314;28;20694;-62
2022/12/07 05:31:53;;;;;;;3.17;2.97;;;5.20;99.90;;;;;;4933511;28;20271;-63
2022/12/07 05:34:20;;;;;;;2.70;2.60;;;5.30;99.90;;;;;;4932815;28;20303;-63
2022/12/07 05:36:47;;;;;;;2.70;2.53;;;5.20;99.90;;;;;;4934082;28;20614;-61
2022/12/07 05:39:14;;;;;;;2.30;2.20;;;5.10;99.90;;;;;;4933744;28;20208;-62
2022/12/07 05:44:26;;;;;;;2.40;2.27;;;5.10;99.90;;;;;;4933015;29;20207;-63
2022/12/07 05:46:53;;;;;;;2.30;2.20;;;5.10;99.90;;;;;;4932618;28;20325;-62
2022/12/07 05:49:20;;;;;;;2.33;2.23;;;5.10;99.90;;;;;;4932379;28;20307;-62
2022/12/07 05:51:46;;;;;;;2.30;2.20;;;5.00;99.90;;;;;;4932843;28;20295;-62
2022/12/07 05:54:13;;;;;;;2.50;2.40;;;5.00;99.90;;;;;;4932986;28;20578;-62
2022/12/07 05:56:40;;;;;;;2.47;2.37;;;4.80;99.90;;;;;;4932970;28;20230;-61
2022/12/07 05:59:26;;;;;;;2.20;2.10;;;4.80;99.90;;;;;;4933558;28;20300;-62
2022/12/07 06:01:56;;;;;;;2.77;2.47;;;4.80;99.90;;;;;;4936852;28;20289;-61
2022/12/07 06:04:25;;;;;;;2.37;2.27;;;4.80;99.90;;;;;;4940119;28;20669;-62
2022/12/07 06:06:52;;;;;;;2.47;2.37;;;4.80;99.90;;;;;;4941762;29;20307;-62
2022/12/07 06:09:20;;;;;;;2.30;2.20;;;4.80;99.90;;;;;;4938339;28;20208;-63
2022/12/07 06:14:32;;;;;;;2.23;2.13;;;4.80;99.90;;;;;;4931412;28;20207;-63
2022/12/07 06:17:00;;;;;;;2.37;2.27;;;4.70;99.90;;;;;;4932152;28;20236;-63
2022/12/07 06:19:27;;;;;;;2.10;2.00;;;4.70;99.90;;;;;;4932682;28;20200;-63
2022/12/07 06:21:55;;;;;;;2.00;1.90;;;4.60;99.90;;;;;;4932858;28;20230;-63
2022/12/07 06:24:22;;;;;;;2.43;2.33;;;4.50;99.90;;;;;;4932051;28;20296;-63
2022/12/07 06:26:49;;;;;;;2.57;2.47;;;4.40;99.90;;;;;;4932431;28;20233;-61
2022/12/07 06:29:17;;;;;;;2.50;2.40;;;4.40;99.90;;;;;;4932453;28;20212;-63
2022/12/07 06:31:44;;;;;;;2.00;1.90;;;4.40;99.90;;;;;;4932423;28;20214;-62
2022/12/07 06:34:14;;;;;;;2.20;2.10;;;4.40;99.90;;;;;;4932097;28;20226;-62
2022/12/07 06:36:41;;;;;;;2.43;2.30;;;4.40;99.90;;;;;;4931562;29;20232;-63
2022/12/07 06:39:08;;;;;;;2.17;2.07;;;4.30;99.90;;;;;;4932173;28;20215;-61
2022/12/07 06:41:36;;;;;;;2.30;2.20;;;4.20;99.90;;;;;;4932102;29;20232;-63
2022/12/07 06:44:03;;;;;;;2.50;2.30;;;4.20;99.90;;;;;;4930380;28;20212;-62
2022/12/07 06:46:30;;;;;;;2.20;2.10;;;4.20;99.90;;;;;;4932882;29;20314;-62
2022/12/07 06:48:57;;;;;;;2.10;2.00;;;4.20;99.90;;;;;;4923106;28;20576;-63
2022/12/07 06:51:25;;;;;;;1.90;1.80;;;4.10;99.90;;;;;;4931960;28;20240;-62
2022/12/07 06:53:52;;;;;;;2.07;1.97;;;4.10;99.90;;;;;;4932400;28;20214;-62
2022/12/07 06:56:20;;;;;;;2.40;2.13;;;4.00;99.90;;;;;;4932711;28;20227;-63
2022/12/07 06:58:47;;;;;;;2.30;2.10;;;4.10;99.90;;;;;;4929415;29;20219;-61
2022/12/07 07:01:15;;;;;;;2.30;2.20;;;4.10;99.90;;;;;;4927376;29;20228;-61
2022/12/07 07:03:42;;;;;;;2.13;2.03;;;4.10;99.90;;;;;;4932952;29;20200;-63
2022/12/07 07:06:09;;;;;;;2.33;2.23;;;4.20;99.90;;;;;;4928865;29;20270;-63
2022/12/07 07:08:39;;;;;;;2.10;2.00;;;4.20;99.90;;;;;;4932475;28;20283;-62
2022/12/07 07:11:07;;;;;;;2.30;2.20;;;4.20;99.90;;;;;;4932429;29;20680;-62
2022/12/07 07:13:35;;;;;;;2.27;2.17;;;4.30;99.90;;;;;;4931672;29;20288;-62
2022/12/07 07:16:02;;;;;;;2.40;2.30;;;4.30;99.90;;;;;;4932134;28;20303;-62
2022/12/07 07:18:29;;;;;;;2.40;2.30;;;4.40;99.90;;;;;;4924360;29;20235;-63
2022/12/07 07:20:56;;;;;;;2.23;2.13;;;4.30;99.90;;;;;;4932212;29;20580;-62
2022/12/07 07:23:24;;;;;;;2.30;2.20;;;4.30;99.90;;;;;;4931137;28;20672;-63
2022/12/07 07:25:52;;;;;;;2.30;2.20;;;4.30;99.90;;;;;;4931547;29;20238;-62
2022/12/07 07:28:19;;;;;;;2.20;2.10;;;4.30;99.90;;;;;;4931309;28;20686;-62
2022/12/07 07:30:46;;;;;;;2.30;2.20;;;4.40;99.90;;;;;;4931887;29;20212;-63
2022/12/07 07:33:13;;;;;;;2.13;2.03;;;4.40;99.90;;;;;;4930975;28;20298;-63
2022/12/07 07:35:40;;;;;;;2.40;2.30;;;4.30;99.90;;;;;;4932015;29;20311;-61
2022/12/07 07:38:08;;;;;;;2.17;2.07;;;4.30;99.90;;;;;;4939699;28;20208;-62
2022/12/07 07:40:35;;;;;;;1.90;1.80;;;4.30;99.90;;;;;;4948303;28;20287;-61
2022/12/07 07:43:03;;;;;;;2.00;1.90;;;4.20;99.90;;;;;;4943957;28;20315;-62
2022/12/07 07:45:30;;;;;;;1.87;1.77;;;4.20;99.90;;;;;;4933382;28;20896;-63
2022/12/07 07:47:57;;;;;;;1.80;1.70;;;4.20;99.90;;;;;;4931956;29;20533;-62
2022/12/07 07:50:24;;;;;;;2.00;1.90;;;4.30;99.90;;;;;;4930343;29;20211;-61
2022/12/07 07:52:52;;;;;;;1.90;1.80;;;4.40;99.90;;;;;;4926895;28;20222;-63
2022/12/07 07:55:19;;;;;;;2.30;2.20;;;4.40;99.90;;;;;;4932007;29;20294;-62
2022/12/07 07:57:45;;;;;;;1.93;1.83;;;4.40;99.90;;;;;;4931551;29;20283;-62
2022/12/07 08:00:16;;;;;;;2.20;2.10;;;4.40;99.90;;;;;;4929447;28;20212;-62
2022/12/07 08:02:44;;;;;;;2.40;2.30;;;4.50;99.90;;;;;;4919161;29;20608;-62
2022/12/07 08:05:12;;;;;;;2.10;2.00;;;4.50;99.90;;;;;;4930314;28;20248;-62
2022/12/07 08:07:39;;;;;;;2.03;1.93;;;4.50;99.90;;;;;;4927655;29;20656;-62
2022/12/07 08:10:07;;;;;;;2.33;2.23;;;4.50;99.90;;;;;;4941127;28;20208;-62
2022/12/07 08:13:10;;;;;;;2.43;2.23;;;4.50;99.90;;;;;;4943080;29;20296;-62
2022/12/07 08:15:27;;;;;;;2.20;2.10;;;4.50;99.90;;;;;;4931421;28;20619;-62
2022/12/07 08:17:54;;;;;;;2.27;2.17;;;4.50;99.90;;;;;;4930626;29;20215;-61
2022/12/07 08:20:22;;;;;;;2.30;2.20;;;4.60;99.90;;;;;;4930498;29;20295;-62
2022/12/07 08:22:48;;;;;;;2.27;2.17;;;4.70;99.90;;;;;;4929106;28;20234;-61
2022/12/07 08:25:15;;;;;;;1.97;1.87;;;4.70;99.90;;;;;;4972733;28;20232;-62
2022/12/07 08:27:42;;;;;;;2.10;2.00;;;4.80;99.90;;;;;;4954507;28;20232;-63
2022/12/07 08:30:10;;;;;;;2.40;2.30;;;4.80;99.90;;;;;;4948768;28;20542;-61
2022/12/07 08:32:38;;;;;;;2.30;2.20;;;4.90;99.90;;;;;;4930922;29;20292;-62
2022/12/07 08:35:05;;;;;;;2.40;2.30;;;4.90;99.90;;;;;;4930533;28;20243;-62
2022/12/07 08:37:32;;;;;;;1.90;1.80;;;4.90;99.90;;;;;;4951595;28;20238;-62
2022/12/07 08:39:59;;;;;;;2.13;2.03;;;4.90;99.90;;;;;;4932400;29;20214;-61
2022/12/07 08:42:29;;;;;;;2.07;1.97;;;4.90;99.90;;;;;;4933282;29;20704;-62
2022/12/07 08:44:56;;;;;;;2.10;2.00;;;4.90;99.90;;;;;;4933938;28;20208;-62
2022/12/07 08:47:24;;;;;;;2.10;2.00;;;4.90;99.90;;;;;;4933834;28;20731;-62
2022/12/07 08:49:54;;;;;;;2.30;2.20;;;5.00;99.90;;;;;;4950234;28;20291;-62
2022/12/07 08:52:21;;;;;;;2.40;2.30;;;5.00;99.90;;;;;;4949113;28;20208;-61
2022/12/07 08:54:48;;;;;;;1.90;1.80;;;5.10;99.90;;;;;;4938226;28;20302;-62
2022/12/07 08:57:15;;;;;;;2.07;1.97;;;5.20;99.90;;;;;;4943037;28;20278;-61
2022/12/07 08:59:42;;;;;;;1.70;1.60;;;5.20;99.90;;;;;;4933478;28;20669;-62
2022/12/07 09:02:08;;;;;;;1.93;1.83;;;5.20;99.90;;;;;;4932663;29;20238;-62
2022/12/07 09:04:35;;;;;;;1.90;1.80;;;5.10;99.90;;;;;;4933659;29;20207;-62
2022/12/07 09:07:04;;;;;;;2.20;2.10;;;5.10;99.90;;;;;;4933987;29;20230;-62
2022/12/07 09:09:31;;;;;;;2.00;1.90;;;5.10;99.90;;;;;;4932743;29;20218;-62
2022/12/07 09:11:58;;;;;;;2.00;1.90;;;5.20;99.90;;;;;;4934100;28;20660;-62
2022/12/07 09:14:25;;;;;;;2.20;2.10;;;5.30;99.90;;;;;;4933838;28;20204;-62
2022/12/07 09:16:52;;;;;;;2.10;2.00;;;5.40;99.90;;;;;;4934047;29;20736;-61
2022/12/07 09:19:19;;;;;;;2.10;2.00;;;5.40;99.90;;;;;;4934938;28;20212;-61
2022/12/07 09:21:45;;;;;;;2.07;1.97;;;5.50;99.90;;;;;;4933969;28;20222;-61
2022/12/07 09:24:14;;;;;;;5.20;2.50;;;5.50;99.90;;;;;;4933989;28;20216;-61
2022/12/07 09:26:41;;;;;;;2.40;2.30;;;5.60;99.90;;;;;;4941867;28;20288;-62
2022/12/07 09:29:08;;;;;;;2.40;2.30;;;5.60;99.90;;;;;;4938325;28;20205;-62
2022/12/07 09:31:37;;;;;;;2.27;2.17;;;5.70;99.90;;;;;;4932745;28;20211;-63
2022/12/07 09:34:04;;;;;;;1.97;1.87;;;5.60;99.90;;;;;;4929828;29;20294;-62
2022/12/07 09:36:31;;;;;;;1.87;1.77;;;5.60;99.90;;;;;;4937480;28;20247;-63
2022/12/07 09:38:58;;;;;;;1.83;1.73;;;5.60;99.90;;;;;;4930855;28;20266;-62
2022/12/07 09:41:28;;;;;;;1.90;1.80;;;5.70;99.90;;;;;;4934796;29;20200;-61
2022/12/07 09:44:05;;;;;;;2.10;2.00;;;5.80;99.90;;;;;;4932178;28;20219;-62
2022/12/07 09:46:37;;;;;;;1.63;1.57;;;5.80;99.90;;;;;;4928231;29;20310;-61
2022/12/07 09:49:05;;;;;;;2.10;1.83;;;5.80;99.90;;;;;;4928961;28;20201;-63
2022/12/07 09:51:32;;;;;;;2.00;1.90;;;5.90;99.90;;;;;;4931827;29;20208;-62
2022/12/07 09:54:00;;;;;;;1.83;1.73;;;5.90;99.90;;;;;;4929750;29;20206;-62
2022/12/07 09:56:31;;;;;;;1.80;1.70;;;5.90;99.90;;;;;;4932390;29;20807;-62
2022/12/07 09:59:00;;;;;;;2.00;1.90;;;5.90;99.90;;;;;;4940908;29;20311;-61
2022/12/07 10:01:30;;;;;;;1.87;1.77;;;6.00;99.90;;;;;;4931560;28;20699;-62
2022/12/07 10:04:06;;;;;;;2.10;2.00;;;5.90;99.90;;;;;;4933236;28;20231;-63
2022/12/07 10:06:33;;;;;;;1.90;1.80;;;6.00;99.90;;;;;;4926217;28;20611;-62
2022/12/07 10:09:00;;;;;;;1.63;1.53;;;6.10;99.90;;;;;;4926700;29;20304;-62
2022/12/07 10:11:28;;;;;;;1.80;1.70;;;6.10;99.90;;;;;;4933229;28;20212;-62
2022/12/07 10:13:55;;;;;;;1.83;1.73;;;6.20;99.90;;;;;;4933061;29;20613;-63
2022/12/07 10:16:39;;;;;;;1.80;1.70;;;6.20;99.90;;;;;;4941394;29;20259;-63
2022/12/07 10:19:24;;;;;;;1.90;1.80;;;6.30;99.90;;;;;;4936184;29;20652;-63
2022/12/07 10:22:03;;;;;;;2.37;1.97;;;6.30;99.90;;;;;;4934779;28;20208;-63
2022/12/07 10:24:30;;;;;;;1.90;1.80;;;6.30;99.90;;;;;;4923545;29;20203;-63
2022/12/07 10:26:58;;;;;;;2.07;1.97;;;6.40;99.90;;;;;;4929061;28;20230;-62
2022/12/07 10:29:30;;;;;;;1.77;1.67;;;6.40;99.90;;;;;;4935813;29;20232;-61
2022/12/07 10:31:59;;;;;;;1.67;1.60;;;6.40;99.90;;;;;;4922797;29;20315;-62
2022/12/07 10:34:29;;;;;;;1.80;1.70;;;6.50;99.90;;;;;;4932628;29;20215;-61
2022/12/07 10:37:14;;;;;;;1.70;1.60;;;6.50;99.90;;;;;;4923261;28;20592;-62
2022/12/07 10:39:43;;;;;;;1.90;1.80;;;6.50;99.90;;;;;;4926877;29;20208;-62
2022/12/07 10:42:18;;;;;;;1.40;1.40;;;6.50;99.90;;;;;;4931598;29;20231;-62
2022/12/07 10:44:44;;;;;;;1.80;1.70;;;6.50;99.90;;;;;;4935925;28;20227;-62
2022/12/07 10:47:33;;;;;;;1.70;1.60;;;6.40;99.90;;;;;;4928874;28;20232;-63
2022/12/07 10:50:19;;;;;;;1.70;1.60;;;6.40;99.90;;;;;;4930878;29;20212;-61
2022/12/07 10:53:10;;;;;;;1.80;1.70;;;6.40;99.90;;;;;;4930991;28;20242;-61
2022/12/07 10:55:53;;;;;;;1.60;1.50;;;6.30;99.90;;;;;;4934250;29;20242;-62
2022/12/07 10:58:37;;;;;;;1.50;1.40;;;6.10;99.90;;;;;;4932703;28;20208;-62
2022/12/07 11:01:13;;;;;;;1.60;1.50;;;6.00;99.90;;;;;;4933511;29;20581;-63
2022/12/07 11:03:53;;;;;;;1.70;1.60;;;5.90;99.90;;;;;;4931262;29;20223;-63
2022/12/07 11:06:31;;;;;;;1.37;1.37;;;5.90;99.90;;;;;;4927549;29;20603;-63
2022/12/07 11:09:10;;;;;;;1.70;1.60;;;5.80;99.90;;;;;;4926608;28;20208;-62
2022/12/07 11:11:41;;;;;;;1.47;1.47;;;5.70;99.90;;;;;;4925946;28;20302;-63
2022/12/07 11:14:21;;;;;;;1.50;1.40;;;5.70;99.90;;;;;;4932259;29;20201;-62
2022/12/07 11:16:56;;;;;;;1.40;1.40;;;5.70;99.90;;;;;;4931316;29;20235;-63
2022/12/07 11:19:51;;;;;;;1.20;1.20;;;5.70;99.90;;;;;;4931252;28;20214;-62
2022/12/07 11:22:24;;;;;;;1.40;1.40;;;5.70;99.90;;;;;;4931232;29;20694;-62
2022/12/07 11:24:57;;;;;;;1.70;1.60;;;5.80;99.90;;;;;;4931488;29;20204;-62
2022/12/07 11:27:31;;;;;;;1.47;1.43;;;5.80;99.90;;;;;;4930693;28;20234;-62
2022/12/07 11:30:15;;;;;;;1.30;1.30;;;5.90;99.90;;;;;;4928162;29;20203;-62
2022/12/07 11:33:00;;;;;;;1.40;1.40;;;5.90;99.90;;;;;;4924939;28;20196;-62
2022/12/07 11:35:37;;;;;;;1.60;1.50;;;6.00;99.90;;;;;;4930819;28;20204;-62
2022/12/07 11:38:11;;;;;;;1.73;1.60;;;5.90;99.90;;;;;;4931265;29;20566;-62
2022/12/07 11:40:40;;;;;;;1.50;1.50;;;6.00;99.90;;;;;;4927793;29;20222;-63
2022/12/07 11:43:16;;;;;;;1.57;1.47;;;6.00;99.90;;;;;;4931118;28;20256;-62
2022/12/07 11:45:47;;;;;;;1.40;1.40;;;6.00;99.90;;;;;;4932342;28;20243;-62
2022/12/07 11:48:21;;;;;;;1.60;1.50;;;6.00;99.90;;;;;;4928089;29;20575;-62
2022/12/07 11:50:50;;;;;;;1.53;1.50;;;6.00;99.90;;;;;;4923733;29;20220;-62
2022/12/07 11:53:22;;;;;;;1.40;1.30;;;6.00;99.90;;;;;;4933090;28;20205;-63
2022/12/07 11:55:53;;;;;;;1.27;1.27;;;6.00;99.90;;;;;;4925364;29;20236;-61
2022/12/07 11:58:36;;;;;;;1.40;1.40;;;6.00;99.90;;;;;;4923300;29;20301;-62
2022/12/07 12:01:15;;;;;;;1.60;1.50;;;6.10;99.90;;;;;;4926854;29;20212;-61
2022/12/07 12:03:45;;;;;;;1.43;1.43;;;6.10;99.90;;;;;;4931365;29;20225;-61
2022/12/07 12:06:12;;;;;;;1.50;1.50;;;6.20;99.90;;;;;;4937760;28;20605;-62
2022/12/07 12:08:45;;;;;;;1.40;1.40;;;6.20;99.90;;;;;;4931545;29;20210;-62
2022/12/07 12:11:22;;;;;;;1.30;1.30;;;6.20;99.90;;;;;;4931705;28;20222;-63
2022/12/07 12:14:12;;;;;;;1.70;1.60;;;6.30;99.90;;;;;;4928341;29;20640;-61
2022/12/07 12:17:11;;;;;;;1.37;1.37;;;6.30;99.90;;;;;;4928777;28;20319;-61
2022/12/07 12:19:42;;;;;;;1.27;1.27;;;6.30;99.90;;;;;;4930349;28;20200;-64
2022/12/07 12:22:16;;;;;;;1.20;1.20;;;6.40;99.90;;;;;;4926100;28;20303;-64
2022/12/07 12:24:44;;;;;;;1.30;1.30;;;6.40;99.90;;;;;;4931128;29;20220;-63
2022/12/07 12:27:20;;;;;;;1.20;1.20;;;6.40;99.90;;;;;;4930041;28;20234;-61
2022/12/07 12:29:55;;;;;;;1.17;1.17;;;6.50;99.90;;;;;;4929290;28;20207;-62
2022/12/07 12:32:31;;;;;;;1.07;1.07;;;6.50;99.90;;;;;;4930258;28;20211;-62
2022/12/07 12:35:03;;;;;;;1.10;1.10;;;6.50;99.90;;;;;;4928651;28;20688;-61
2022/12/07 12:37:46;;;;;;;1.10;1.10;;;6.50;99.90;;;;;;4930392;29;20223;-62
2022/12/07 12:40:42;;;;;;;1.00;1.00;;;6.50;99.90;;;;;;4925660;29;20448;-62
2022/12/07 12:43:42;;;;;;;1.13;1.13;;;6.50;99.90;;;;;;4929099;28;20319;-62
2022/12/07 12:46:49;;;;;;;1.27;1.27;;;6.60;99.90;;;;;;4929178;28;20224;-61
2022/12/07 12:50:05;;;;;;;1.30;1.30;;;6.60;99.90;;;;;;4933601;29;20215;-63
2022/12/07 12:52:55;;;;;;;1.87;1.77;;;6.70;99.90;;;;;;4932966;29;20292;-61
2022/12/07 12:55:52;;;;;;;1.60;1.50;;;6.80;99.90;;;;;;4930631;28;20287;-63
2022/12/07 12:58:35;;;;;;;1.60;1.50;;;6.70;99.90;;;;;;4940399;28;20204;-62
2022/12/07 13:01:49;;;;;;;1.20;1.20;;;6.80;99.90;;;;;;4931229;28;20290;-62
2022/12/07 13:04:51;;;;;;;1.30;1.30;;;6.80;99.90;;;;;;4947062;29;20224;-62
2022/12/07 13:07:56;;;;;;;1.00;1.00;;;6.80;99.90;;;;;;4931125;28;20228;-62
2022/12/07 13:10:28;;;;;;;1.10;1.10;;;6.80;99.90;;;;;;4931104;28;20207;-62
2022/12/07 13:12:58;;;;;;;1.10;1.10;;;6.80;99.90;;;;;;4929696;28;20208;-61
2022/12/07 13:15:37;;;;;;;0.90;0.90;;;6.80;99.90;;;;;;4932083;29;20208;-62
2022/12/07 13:18:22;;;;;;;1.13;1.13;;;6.80;99.90;;;;;;4930184;29;20242;-61
2022/12/07 13:20:53;;;;;;;1.10;1.10;;;6.70;99.90;;;;;;4930346;29;20629;-62
2022/12/07 13:23:27;;;;;;;1.10;1.10;;;6.80;99.90;;;;;;4928844;28;20224;-62
2022/12/07 13:26:19;;;;;;;0.97;0.97;;;6.70;99.90;;;;;;4931061;29;20319;-62